EDT,Max TemperatureF,Mean TemperatureF,Min TemperatureF,Max Dew PointF,MeanDew PointF,Min DewpointF,Max Humidity, Mean Humidity, Min Humidity, Max Sea Level PressureIn, Mean Sea Level PressureIn, Min Sea Level PressureIn, Max VisibilityMiles, Mean VisibilityMiles, Min VisibilityMiles, Max Wind SpeedMPH, Mean Wind SpeedMPH, Max Gust SpeedMPH,PrecipitationIn, CloudCover, Events, WindDirDegrees
2013-7-1,82,76,69,74,71,68,98,89,71,30.00,29.92,29.86,10,8,0,15,1,20,1.04,7,Rain,169
2013-7-2,75,74,72,73,72,70,96,93,87,30.19,30.11,30.00,10,10,5,8,5,,0.29,6,Rain,158
2013-7-3,83,77,71,75,73,70,97,91,73,30.26,30.21,30.16,10,8,1,9,3,16,0.89,6,Rain,155
2013-7-4,87,78,70,74,72,69,97,80,56,30.28,30.24,30.19,10,9,2,10,3,17,0.00,4,,143
2013-7-5,88,78,68,74,71,68,98,81,53,30.28,30.24,30.17,10,8,1,10,2,,0.00,3,Rain,155
2013-7-6,88,80,70,74,72,69,97,82,56,30.26,30.21,30.13,10,9,0,12,2,17,0.04,4,Fog-Rain,157
2013-7-7,89,77,65,74,71,65,98,80,56,30.21,30.15,30.07,10,9,2,10,2,16,0.00,2,,191
2013-7-8,88,80,71,74,72,70,97,82,55,30.19,30.15,30.11,10,9,5,9,2,,0.00,4,,228
2013-7-9,87,78,69,75,72,69,97,88,64,30.18,30.14,30.08,10,9,4,13,2,22,0.11,4,Rain,177
2013-7-10,87,78,70,76,73,70,98,85,62,30.12,30.05,29.96,10,9,3,12,2,17,0.00,5,,196
2013-7-11,82,77,72,74,72,71,97,89,70,29.99,29.95,29.89,10,8,2,8,3,16,0.22,5,Rain,193
2013-7-12,78,74,71,72,71,69,97,91,78,30.02,29.94,29.88,10,9,3,10,2,,0.13,7,Rain,19
2013-7-13,78,74,70,75,71,68,95,91,83,30.17,30.09,30.02,10,8,3,7,3,,0.16,7,Rain,50
2013-7-14,86,77,68,76,71,68,97,83,56,30.30,30.25,30.18,10,9,1,8,2,12,0.02,3,Rain,72
2013-7-15,89,78,68,75,71,67,98,81,47,30.33,30.29,30.25,10,7,0,6,1,,0.00,3,Fog,40
2013-7-16,92,79,66,78,71,66,98,77,46,30.30,30.25,30.19,10,7,0,6,1,,0.03,1,Fog-Rain,285
2013-7-17,92,82,73,77,74,70,97,79,50,30.23,30.18,30.12,10,7,2,7,1,,0.03,2,,49
2013-7-18,92,82,73,76,74,69,96,79,48,30.15,30.12,30.06,10,7,2,9,1,,0.00,3,,238
2013-7-19,90,82,73,75,73,70,96,77,52,30.12,30.07,30.00,10,8,2,12,2,,0.00,2,,201
2013-7-20,90,82,74,76,72,71,90,78,55,30.05,30.00,29.93,10,10,10,13,6,16,0.00,4,Rain,206
2013-7-21,88,79,70,76,72,69,96,82,56,30.01,29.97,29.91,10,9,2,17,4,22,0.41,4,Rain,205
2013-7-22,87,78,70,73,72,70,98,84,59,29.97,29.91,29.84,10,7,0,10,2,16,0.01,4,Fog-Rain,226
2013-7-23,90,82,73,74,71,68,95,75,49,29.87,29.80,29.74,10,10,5,10,4,18,0.00,1,,239
2013-7-24,91,80,69,73,70,66,96,79,46,29.87,29.79,29.74,10,9,1,10,2,,0.38,2,Rain,253
2013-7-25,80,74,67,70,68,66,97,83,63,30.04,29.93,29.83,10,9,2,10,3,,0.02,4,Rain,9
2013-7-26,84,72,61,70,64,60,98,76,45,30.12,30.07,30.03,10,7,0,6,0,,0.00,1,Fog,101
2013-7-27,84,74,63,73,67,63,98,86,55,30.06,30.01,29.95,10,7,0,9,1,,0.44,2,Fog-Rain,155
2013-7-28,86,76,66,74,70,66,98,82,54,30.01,29.96,29.93,10,8,1,8,1,,0.00,3,,215
2013-7-29,84,76,68,72,67,63,96,76,48,30.16,30.09,30.01,10,9,3,9,3,,0.03,2,Rain,347
2013-7-30,86,73,60,72,65,60,99,76,44,30.23,30.18,30.14,10,7,0,5,0,,0.00,1,Fog,44
2013-7-31,83,76,70,74,71,68,97,85,68,30.15,30.10,30.01,10,8,2,8,1,17,0.53,4,Rain,145